createdAt,value
2023-05-17T00:02:12.635Z,19.61
2023-05-17T00:04:40.316Z,19.60
2023-05-17T00:07:07.966Z,19.64
2023-05-17T00:09:36.073Z,19.61
2023-05-17T00:12:03.807Z,19.64
2023-05-17T00:14:31.411Z,19.57
2023-05-17T00:17:00.545Z,19.63
2023-05-17T00:19:28.420Z,19.69
2023-05-17T00:21:55.799Z,19.56
2023-05-17T00:24:23.192Z,19.62
2023-05-17T00:26:50.554Z,19.48
2023-05-17T00:29:18.117Z,19.32
2023-05-17T00:31:45.671Z,19.42
2023-05-17T00:34:13.267Z,19.38
2023-05-17T00:36:40.718Z,19.40
2023-05-17T00:39:08.112Z,19.28
2023-05-17T00:41:36.002Z,19.37
2023-05-17T00:44:03.424Z,19.40
2023-05-17T00:46:31.092Z,19.36
2023-05-17T00:48:58.696Z,19.33
2023-05-17T00:51:26.207Z,19.42
2023-05-17T00:53:53.681Z,19.39
2023-05-17T00:56:21.339Z,19.45
2023-05-17T00:58:48.876Z,19.26
2023-05-17T01:01:16.833Z,19.26
2023-05-17T01:03:44.863Z,19.29
2023-05-17T01:06:13.196Z,19.09
2023-05-17T01:08:41.199Z,19.18
2023-05-17T01:11:08.744Z,19.22
2023-05-17T01:14:06.897Z,19.28
2023-05-17T01:16:44.492Z,19.29
2023-05-17T01:19:36.704Z,19.24
2023-05-17T01:22:25.168Z,19.22
2023-05-17T01:25:12.455Z,19.15
2023-05-17T01:27:43.662Z,19.11
2023-05-17T01:30:14.397Z,19.11
2023-05-17T01:32:43.627Z,19.08
2023-05-17T01:35:12.596Z,19.07
2023-05-17T01:37:40.411Z,18.76
2023-05-17T01:40:09.549Z,18.93
2023-05-17T01:42:42.883Z,18.80
2023-05-17T01:45:41.551Z,18.82
2023-05-17T01:48:21.999Z,18.72
2023-05-17T01:50:52.599Z,18.74
2023-05-17T01:53:55.802Z,18.62
2023-05-17T01:56:32.895Z,18.57
2023-05-17T01:59:06.870Z,18.64
2023-05-17T02:01:36.496Z,18.57
2023-05-17T02:04:04.140Z,18.53
2023-05-17T02:06:31.825Z,18.60
2023-05-17T02:09:01.203Z,18.49
2023-05-17T02:11:28.956Z,18.63
2023-05-17T02:13:56.484Z,18.59
2023-05-17T02:16:23.898Z,18.42
2023-05-17T02:18:51.752Z,18.57
2023-05-17T02:21:19.414Z,18.55
2023-05-17T02:23:46.894Z,18.55
2023-05-17T02:26:14.385Z,18.55
2023-05-17T02:28:41.809Z,18.50
2023-05-17T02:31:09.727Z,18.55
2023-05-17T02:33:37.645Z,18.52
2023-05-17T02:36:05.487Z,18.56
2023-05-17T02:38:33.138Z,18.58
2023-05-17T02:41:00.461Z,18.60
2023-05-17T02:43:27.817Z,18.66
2023-05-17T02:45:55.226Z,18.69
2023-05-17T02:48:23.013Z,18.74
2023-05-17T02:50:50.410Z,18.68
2023-05-17T02:53:18.034Z,18.60
2023-05-17T02:55:45.475Z,18.64
2023-05-17T02:58:12.976Z,18.59
2023-05-17T03:00:40.463Z,18.66
2023-05-17T03:03:08.118Z,18.60
2023-05-17T03:05:36.516Z,18.76
2023-05-17T03:08:10.490Z,18.70
2023-05-17T03:10:37.857Z,18.70
2023-05-17T03:13:05.428Z,18.70
2023-05-17T03:15:32.973Z,18.79
2023-05-17T03:18:00.809Z,18.79
2023-05-17T03:20:28.316Z,18.69
2023-05-17T03:22:55.760Z,18.90
2023-05-17T03:25:23.119Z,18.82
2023-05-17T03:27:50.549Z,18.79
2023-05-17T03:30:18.073Z,18.83
2023-05-17T03:32:46.291Z,18.86
2023-05-17T03:35:13.783Z,18.90
2023-05-17T03:37:41.502Z,18.90
2023-05-17T03:40:09.209Z,18.93
2023-05-17T03:42:37.181Z,19.00
2023-05-17T03:45:05.238Z,19.00
2023-05-17T03:47:32.669Z,18.99
2023-05-17T03:50:00.035Z,18.91
2023-05-17T03:52:27.442Z,18.97
2023-05-17T03:54:54.904Z,18.98
2023-05-17T03:57:22.478Z,18.92
2023-05-17T03:59:49.896Z,19.10
2023-05-17T04:02:17.393Z,19.07
2023-05-17T04:04:52.087Z,19.10
2023-05-17T04:07:19.718Z,19.19
2023-05-17T04:09:47.621Z,19.17
2023-05-17T04:12:15.349Z,19.28
2023-05-17T04:14:42.782Z,19.35
2023-05-17T04:17:10.504Z,19.32
2023-05-17T04:19:37.940Z,19.31
2023-05-17T04:22:05.641Z,19.32
2023-05-17T04:24:33.274Z,19.32
2023-05-17T04:27:03.254Z,19.48
2023-05-17T04:29:31.043Z,19.49
2023-05-17T04:31:59.384Z,19.52
2023-05-17T04:34:27.038Z,19.64
2023-05-17T04:36:54.568Z,19.73
2023-05-17T04:39:22.380Z,19.70
2023-05-17T04:41:49.759Z,19.83
2023-05-17T04:44:17.785Z,19.88
2023-05-17T04:46:45.970Z,19.96
2023-05-17T04:49:14.291Z,20.14
2023-05-17T04:51:41.764Z,20.11
2023-05-17T04:54:09.210Z,20.12
2023-05-17T04:56:36.844Z,20.20
2023-05-17T04:59:04.384Z,20.00
2023-05-17T05:01:31.801Z,20.20
2023-05-17T05:03:59.297Z,20.26
2023-05-17T05:06:26.851Z,20.46
2023-05-17T05:08:54.264Z,20.45
2023-05-17T05:11:21.712Z,20.32
2023-05-17T05:13:49.807Z,20.47
2023-05-17T05:16:17.325Z,20.59
2023-05-17T05:18:44.760Z,20.77
2023-05-17T05:21:12.166Z,20.86
2023-05-17T05:23:39.682Z,21.01
2023-05-17T05:26:07.084Z,21.02
2023-05-17T05:28:34.513Z,21.08
2023-05-17T05:31:02.269Z,21.05
2023-05-17T05:33:30.142Z,21.08
2023-05-17T05:35:57.561Z,21.04
2023-05-17T05:38:25.074Z,21.13
2023-05-17T05:40:52.513Z,21.08
2023-05-17T05:43:20.038Z,20.98
2023-05-17T05:45:47.484Z,21.10
2023-05-17T05:48:16.348Z,21.10
2023-05-17T05:50:44.610Z,21.10
2023-05-17T05:53:18.587Z,20.99
2023-05-17T05:55:46.912Z,20.97
2023-05-17T05:58:14.389Z,21.00
2023-05-17T06:00:41.895Z,21.04
2023-05-17T06:03:09.344Z,21.26
2023-05-17T06:05:37.046Z,21.46
2023-05-17T06:08:04.796Z,21.54
2023-05-17T06:10:32.521Z,21.74
2023-05-17T06:13:00.023Z,21.81
2023-05-17T06:15:28.668Z,21.94
2023-05-17T06:17:56.135Z,22.17
2023-05-17T06:20:23.759Z,22.03
2023-05-17T06:22:51.267Z,21.99
2023-05-17T06:25:18.666Z,22.16
2023-05-17T06:27:46.407Z,22.29
2023-05-17T06:30:14.168Z,22.41
2023-05-17T06:32:42.351Z,22.63
2023-05-17T06:35:10.693Z,22.45
2023-05-17T06:37:38.334Z,22.70
2023-05-17T06:40:15.461Z,22.74
2023-05-17T06:42:44.741Z,22.92
2023-05-17T06:47:40.391Z,22.76
2023-05-17T06:50:08.861Z,23.11
2023-05-17T06:52:36.971Z,23.25
2023-05-17T06:55:04.858Z,23.36
2023-05-17T06:57:32.490Z,23.57
2023-05-17T07:00:00.055Z,23.76
2023-05-17T07:02:27.447Z,23.83
2023-05-17T07:04:55.202Z,23.92
2023-05-17T07:07:22.882Z,24.03
2023-05-17T07:09:50.276Z,23.95
2023-05-17T07:12:17.645Z,24.21
2023-05-17T07:14:45.609Z,24.45
2023-05-17T07:17:13.213Z,24.44
2023-05-17T07:19:40.659Z,24.52
2023-05-17T07:22:08.266Z,24.37
2023-05-17T07:24:36.252Z,24.28
2023-05-17T07:27:03.776Z,24.26
2023-05-17T07:29:31.212Z,24.60
2023-05-17T07:31:58.728Z,24.73
2023-05-17T07:34:26.206Z,24.87
2023-05-17T07:36:53.625Z,24.71
2023-05-17T07:39:21.144Z,24.53
2023-05-17T07:41:48.503Z,24.47
2023-05-17T07:44:16.004Z,24.48
2023-05-17T07:46:43.555Z,24.58
2023-05-17T07:49:11.748Z,24.61
2023-05-17T07:51:39.158Z,24.80
2023-05-17T07:54:06.968Z,24.70
2023-05-17T07:56:34.681Z,24.77
2023-05-17T07:59:02.351Z,24.81
2023-05-17T08:01:29.883Z,24.84
2023-05-17T08:03:57.455Z,24.98
2023-05-17T08:06:25.086Z,25.02
2023-05-17T08:08:52.684Z,24.96
2023-05-17T08:11:20.161Z,25.44
2023-05-17T08:13:47.670Z,25.63
2023-05-17T08:16:15.256Z,25.69
2023-05-17T08:18:43.747Z,25.96
2023-05-17T08:21:11.697Z,26.02
2023-05-17T08:23:40.914Z,26.17
2023-05-17T08:26:08.370Z,26.41
2023-05-17T08:28:35.868Z,26.41
2023-05-17T08:31:04.295Z,26.38
2023-05-17T08:33:33.639Z,26.51
2023-05-17T08:36:03.051Z,26.41
2023-05-17T08:38:30.827Z,26.57
2023-05-17T08:41:00.010Z,26.56
2023-05-17T08:43:28.819Z,26.69
2023-05-17T08:46:00.386Z,26.78
2023-05-17T08:48:31.411Z,26.85
2023-05-17T08:51:00.363Z,27.09
2023-05-17T08:53:28.756Z,27.00
2023-05-17T08:56:01.020Z,27.06
2023-05-17T08:58:41.084Z,27.34
2023-05-17T09:01:19.964Z,27.57
2023-05-17T09:03:51.168Z,27.65
2023-05-17T09:06:21.756Z,27.65
2023-05-17T09:08:54.946Z,27.39
2023-05-17T09:11:29.075Z,27.45
2023-05-17T09:14:01.655Z,27.59
2023-05-17T09:16:30.831Z,27.51
2023-05-17T09:18:59.147Z,27.27
2023-05-17T09:21:28.568Z,27.58
2023-05-17T09:26:26.526Z,27.46
2023-05-17T09:28:54.069Z,27.69
2023-05-17T09:31:21.644Z,27.87
2023-05-17T09:33:50.773Z,27.64
2023-05-17T09:36:22.060Z,27.72
2023-05-17T09:39:16.014Z,27.70
2023-05-17T09:41:48.351Z,27.91
2023-05-17T09:44:16.697Z,28.12
2023-05-17T09:46:48.514Z,28.30
2023-05-17T09:49:17.960Z,28.05
2023-05-17T09:51:48.835Z,27.95
2023-05-17T09:54:17.839Z,28.17
2023-05-17T09:56:45.759Z,28.31
2023-05-17T09:59:17.101Z,28.34
2023-05-17T10:01:45.657Z,28.56
2023-05-17T10:04:14.280Z,28.40
2023-05-17T10:06:51.431Z,28.66
2023-05-17T10:09:22.761Z,28.88
2023-05-17T10:11:53.115Z,28.76
2023-05-17T10:14:36.235Z,29.01
2023-05-17T10:17:05.036Z,28.95
2023-05-17T10:19:33.417Z,29.15
2023-05-17T10:22:18.990Z,28.99
2023-05-17T10:24:53.942Z,28.74
2023-05-17T10:27:22.263Z,28.86
2023-05-17T10:29:52.220Z,28.99
2023-05-17T10:32:23.361Z,29.00
2023-05-17T10:35:02.177Z,29.00
2023-05-17T10:37:37.793Z,29.13
2023-05-17T10:40:05.933Z,29.58
2023-05-17T10:42:34.533Z,29.63
2023-05-17T10:45:02.301Z,29.63
2023-05-17T10:47:34.119Z,29.55
2023-05-17T10:50:02.318Z,29.85
2023-05-17T10:52:30.683Z,29.62
2023-05-17T10:54:59.907Z,29.73
2023-05-17T10:57:49.975Z,29.95
2023-05-17T11:00:22.117Z,29.91
2023-05-17T11:02:50.864Z,29.56
2023-05-17T11:05:25.927Z,29.60
2023-05-17T11:08:13.083Z,29.41
2023-05-17T11:11:10.639Z,29.65
2023-05-17T11:13:52.279Z,29.83
2023-05-17T11:16:25.549Z,29.46
2023-05-17T11:19:06.575Z,29.64
2023-05-17T11:21:35.604Z,29.27
2023-05-17T11:24:04.399Z,29.23
2023-05-17T11:26:38.038Z,29.29
2023-05-17T11:29:08.547Z,29.27
2023-05-17T11:31:38.468Z,29.26
2023-05-17T11:34:06.829Z,29.59
2023-05-17T11:36:49.780Z,29.60
2023-05-17T11:39:22.150Z,29.68
2023-05-17T11:41:53.913Z,29.57
2023-05-17T11:44:33.170Z,29.53
2023-05-17T11:47:01.990Z,29.82
2023-05-17T11:49:36.430Z,30.14
2023-05-17T11:52:08.543Z,30.52
2023-05-17T11:54:39.056Z,30.38
2023-05-17T11:57:07.193Z,30.47
2023-05-17T11:59:40.116Z,30.53
2023-05-17T12:02:07.930Z,30.93
2023-05-17T12:04:37.938Z,30.31
2023-05-17T12:07:10.654Z,30.69
2023-05-17T12:09:39.815Z,30.92
2023-05-17T12:12:08.785Z,30.87
2023-05-17T12:14:36.752Z,30.98
2023-05-17T12:17:08.191Z,31.26
2023-05-17T12:19:36.248Z,31.48
2023-05-17T12:22:14.849Z,31.50
2023-05-17T12:24:43.144Z,31.60
2023-05-17T12:27:10.916Z,31.00
2023-05-17T12:29:39.336Z,31.19
2023-05-17T12:32:10.236Z,31.48
2023-05-17T12:34:38.471Z,31.42
2023-05-17T12:37:10.635Z,31.96
2023-05-17T12:39:38.948Z,32.15
2023-05-17T12:42:07.383Z,31.94
2023-05-17T12:44:35.951Z,31.89
2023-05-17T12:47:03.463Z,31.87
2023-05-17T12:49:30.975Z,31.93
2023-05-17T12:52:05.012Z,32.24
2023-05-17T12:54:33.308Z,32.07
2023-05-17T12:57:12.443Z,32.29
2023-05-17T12:59:48.260Z,32.24
2023-05-17T13:02:16.787Z,32.04
2023-05-17T13:04:44.415Z,32.08
2023-05-17T13:07:12.303Z,32.37
2023-05-17T13:09:48.312Z,32.66
2023-05-17T13:12:23.934Z,32.80
2023-05-17T13:14:53.667Z,32.55
2023-05-17T13:17:27.548Z,32.50
2023-05-17T13:19:58.028Z,32.34
2023-05-17T13:22:25.948Z,32.65
2023-05-17T13:24:54.415Z,33.02
2023-05-17T13:27:21.890Z,32.55
2023-05-17T13:29:49.330Z,32.54
2023-05-17T13:32:16.837Z,32.55
2023-05-17T13:34:44.348Z,32.34
2023-05-17T13:37:12.787Z,32.78
2023-05-17T13:39:43.445Z,32.72
2023-05-17T13:42:12.845Z,32.55
2023-05-17T13:44:40.871Z,32.42
2023-05-17T13:47:08.501Z,32.45
2023-05-17T13:49:36.290Z,33.43
2023-05-17T13:52:03.897Z,33.36
2023-05-17T13:54:31.460Z,32.56
2023-05-17T13:56:58.848Z,32.56
2023-05-17T13:59:26.416Z,32.20
2023-05-17T14:01:53.989Z,31.54
2023-05-17T14:04:21.527Z,31.46
2023-05-17T14:06:50.277Z,31.25
2023-05-17T14:09:19.220Z,30.42
2023-05-17T14:11:46.728Z,29.96
2023-05-17T14:14:14.064Z,29.46
2023-05-17T14:16:41.624Z,29.32
2023-05-17T14:19:09.179Z,29.01
2023-05-17T14:21:37.589Z,29.03
2023-05-17T14:24:05.379Z,28.44
2023-05-17T14:26:33.449Z,28.11
2023-05-17T14:29:01.066Z,27.81
2023-05-17T14:31:30.078Z,27.83
2023-05-17T14:33:57.672Z,27.66
2023-05-17T14:36:25.311Z,27.51
2023-05-17T14:38:52.779Z,27.29
2023-05-17T14:41:22.121Z,27.22
2023-05-17T14:43:49.525Z,27.00
2023-05-17T14:46:17.141Z,26.80
2023-05-17T14:48:44.567Z,26.56
2023-05-17T14:51:12.479Z,26.39
2023-05-17T14:53:40.174Z,26.30
2023-05-17T14:56:07.807Z,26.33
2023-05-17T14:58:35.924Z,26.15
2023-05-17T15:01:05.050Z,26.21
2023-05-17T15:03:34.279Z,26.24
2023-05-17T15:06:05.121Z,26.08
2023-05-17T15:08:36.138Z,26.01
2023-05-17T15:11:03.637Z,25.97
2023-05-17T15:13:31.086Z,25.89
2023-05-17T15:15:58.839Z,25.81
2023-05-17T15:18:26.305Z,25.69
2023-05-17T15:20:53.735Z,25.61
2023-05-17T15:23:21.163Z,25.55
2023-05-17T15:25:48.551Z,25.60
2023-05-17T15:28:16.055Z,25.49
2023-05-17T15:30:43.552Z,25.40
2023-05-17T15:33:11.443Z,25.44
2023-05-17T15:35:41.921Z,25.37
2023-05-17T15:38:09.477Z,25.21
2023-05-17T15:40:37.789Z,25.24
2023-05-17T15:43:05.595Z,25.28
2023-05-17T15:45:33.554Z,25.13
2023-05-17T15:48:02.212Z,25.28
2023-05-17T15:50:29.844Z,25.10
2023-05-17T15:52:57.536Z,25.00
2023-05-17T15:55:24.947Z,24.99
2023-05-17T15:57:52.422Z,24.91
2023-05-17T16:00:20.359Z,24.90
2023-05-17T16:02:47.804Z,24.86
2023-05-17T16:05:15.211Z,24.71
2023-05-17T16:07:42.661Z,24.66
2023-05-17T16:10:10.263Z,24.52
2023-05-17T16:12:38.317Z,24.60
2023-05-17T16:15:06.184Z,24.57
2023-05-17T16:17:33.871Z,24.42
2023-05-17T16:20:01.668Z,24.46
2023-05-17T16:22:29.262Z,24.39
2023-05-17T16:24:57.211Z,24.34
2023-05-17T16:27:24.722Z,24.35
2023-05-17T16:29:52.259Z,24.27
2023-05-17T16:32:19.772Z,24.23
2023-05-17T16:34:47.419Z,24.06
2023-05-17T16:37:14.780Z,23.98
2023-05-17T16:39:42.346Z,24.04
2023-05-17T16:42:09.782Z,24.02
2023-05-17T16:44:37.424Z,23.76
2023-05-17T16:47:05.320Z,23.72
2023-05-17T16:49:32.834Z,23.76
2023-05-17T16:52:00.250Z,23.61
2023-05-17T16:54:28.560Z,23.70
2023-05-17T16:56:56.569Z,23.59
2023-05-17T16:59:24.084Z,23.48
2023-05-17T17:01:51.635Z,23.44
2023-05-17T17:04:19.203Z,23.44
2023-05-17T17:06:46.986Z,23.33
2023-05-17T17:09:15.120Z,23.17
2023-05-17T17:11:42.608Z,23.08
2023-05-17T17:14:11.113Z,23.00
2023-05-17T17:16:38.968Z,22.93
2023-05-17T17:19:06.686Z,22.74
2023-05-17T17:21:38.735Z,22.81
2023-05-17T17:24:06.801Z,22.86
2023-05-17T17:26:35.615Z,22.68
2023-05-17T17:29:06.696Z,22.72
2023-05-17T17:31:34.337Z,22.57
2023-05-17T17:34:01.731Z,22.51
2023-05-17T17:36:30.456Z,22.46
2023-05-17T17:38:58.163Z,22.37
2023-05-17T17:41:26.258Z,22.35
2023-05-17T17:43:53.616Z,22.40
2023-05-17T17:46:21.103Z,22.39
2023-05-17T17:48:48.590Z,22.27
2023-05-17T17:51:16.109Z,22.19
2023-05-17T17:53:43.501Z,22.15
2023-05-17T17:56:11.062Z,22.19
2023-05-17T17:58:38.542Z,22.19
2023-05-17T18:01:06.219Z,22.04
2023-05-17T18:03:33.890Z,21.94
2023-05-17T18:06:01.423Z,21.75
2023-05-17T18:08:28.979Z,21.65
2023-05-17T18:10:56.482Z,21.45
2023-05-17T18:13:23.934Z,21.35
2023-05-17T18:15:51.410Z,21.32
2023-05-17T18:18:19.005Z,21.23
2023-05-17T18:20:46.684Z,21.19
2023-05-17T18:23:14.148Z,21.13
2023-05-17T18:25:41.549Z,21.01
2023-05-17T18:28:09.244Z,21.08
2023-05-17T18:30:37.048Z,21.04
2023-05-17T18:33:04.477Z,20.98
2023-05-17T18:35:32.572Z,20.80
2023-05-17T18:38:00.733Z,20.76
2023-05-17T18:40:28.418Z,20.68
2023-05-17T18:42:55.984Z,20.65
2023-05-17T18:45:23.652Z,20.53
2023-05-17T18:47:51.301Z,20.45
2023-05-17T18:50:18.925Z,20.38
2023-05-17T18:52:46.544Z,20.36
2023-05-17T18:55:14.892Z,20.27
2023-05-17T18:57:43.158Z,20.24
2023-05-17T19:00:11.224Z,20.14
2023-05-17T19:02:39.372Z,20.09
2023-05-17T19:05:07.605Z,19.91
2023-05-17T19:07:36.446Z,19.79
2023-05-17T19:10:04.610Z,19.72
2023-05-17T19:12:33.085Z,19.74
2023-05-17T19:15:00.604Z,19.56
2023-05-17T19:17:28.303Z,19.51
2023-05-17T19:19:55.822Z,19.52
2023-05-17T19:22:23.505Z,19.40
2023-05-17T19:24:50.922Z,19.39
2023-05-17T19:27:19.946Z,19.41
2023-05-17T19:29:48.160Z,19.27
2023-05-17T19:32:15.715Z,19.19
2023-05-17T19:34:43.415Z,19.09
2023-05-17T19:37:10.860Z,18.95
2023-05-17T19:39:38.486Z,19.13
2023-05-17T19:42:06.537Z,18.78
2023-05-17T19:44:34.425Z,18.59
2023-05-17T19:47:01.876Z,18.59
2023-05-17T19:49:29.461Z,18.49
2023-05-17T19:52:00.765Z,18.46
2023-05-17T19:54:29.643Z,18.48
2023-05-17T19:56:58.295Z,18.40
2023-05-17T19:59:26.212Z,18.43
2023-05-17T20:01:53.701Z,18.33
2023-05-17T20:04:21.078Z,18.29
2023-05-17T20:06:48.899Z,18.12
2023-05-17T20:09:16.778Z,18.13
2023-05-17T20:11:44.595Z,18.12
2023-05-17T20:14:12.482Z,18.06
2023-05-17T20:16:40.170Z,18.11
2023-05-17T20:19:07.743Z,18.13
2023-05-17T20:21:36.259Z,18.07
2023-05-17T20:24:06.934Z,18.02
2023-05-17T20:26:37.867Z,17.95
2023-05-17T20:29:07.442Z,17.88
2023-05-17T20:31:35.775Z,17.80
2023-05-17T20:34:04.080Z,17.78
2023-05-17T20:36:32.671Z,17.75
2023-05-17T20:39:00.170Z,17.65
2023-05-17T20:41:27.601Z,17.63
2023-05-17T20:43:55.053Z,17.68
2023-05-17T20:46:22.606Z,17.57
2023-05-17T20:48:50.636Z,17.66
2023-05-17T20:51:19.642Z,17.96
2023-05-17T20:53:47.164Z,17.72
2023-05-17T20:56:14.621Z,17.55
2023-05-17T20:58:42.121Z,17.43
2023-05-17T21:01:10.204Z,17.35
2023-05-17T21:03:39.833Z,17.34
2023-05-17T21:06:08.326Z,17.30
2023-05-17T21:08:36.456Z,17.32
2023-05-17T21:11:04.127Z,17.23
2023-05-17T21:13:32.267Z,17.21
2023-05-17T21:15:59.881Z,17.20
2023-05-17T21:18:29.570Z,17.14
2023-05-17T21:20:57.197Z,17.18
2023-05-17T21:23:24.577Z,17.07
2023-05-17T21:25:51.995Z,17.01
2023-05-17T21:28:19.428Z,16.95
2023-05-17T21:30:46.978Z,16.92
2023-05-17T21:33:14.462Z,16.94
2023-05-17T21:35:42.158Z,16.97
2023-05-17T21:38:09.752Z,17.02
2023-05-17T21:40:39.020Z,17.08
2023-05-17T21:43:12.442Z,17.15
2023-05-17T21:45:41.352Z,17.09
2023-05-17T21:48:08.881Z,17.06
2023-05-17T21:50:36.592Z,17.12
2023-05-17T21:53:04.073Z,17.17
2023-05-17T21:55:36.798Z,17.43
2023-05-17T21:58:08.500Z,17.59
2023-05-17T22:00:36.540Z,17.79
2023-05-17T22:03:04.356Z,17.89
2023-05-17T22:05:32.781Z,18.00
2023-05-17T22:08:00.192Z,18.14
2023-05-17T22:10:27.719Z,18.21
2023-05-17T22:12:55.472Z,18.15
2023-05-17T22:15:23.267Z,18.29
2023-05-17T22:17:52.986Z,18.36
2023-05-17T22:20:23.773Z,18.44
2023-05-17T22:22:51.390Z,18.43
2023-05-17T22:25:18.774Z,18.49
2023-05-17T22:27:46.408Z,18.60
2023-05-17T22:30:14.136Z,18.61
2023-05-17T22:32:41.796Z,18.64
2023-05-17T22:35:09.564Z,18.59
2023-05-17T22:37:37.687Z,18.53
2023-05-17T22:40:06.658Z,18.54
2023-05-17T22:42:34.248Z,18.58
2023-05-17T22:45:02.009Z,18.43
2023-05-17T22:47:30.373Z,18.51
2023-05-17T22:49:57.848Z,18.52
2023-05-17T22:52:25.213Z,18.60
2023-05-17T22:54:52.650Z,18.61
2023-05-17T22:57:20.042Z,18.49
2023-05-17T22:59:47.535Z,18.47
2023-05-17T23:02:14.977Z,18.53
2023-05-17T23:04:45.968Z,18.44
2023-05-17T23:07:15.090Z,18.28
2023-05-17T23:09:42.572Z,18.20
2023-05-17T23:12:14.546Z,18.23
2023-05-17T23:14:42.597Z,18.24
2023-05-17T23:17:10.055Z,18.15
2023-05-17T23:19:38.146Z,18.06
2023-05-17T23:22:06.481Z,17.97
2023-05-17T23:24:38.813Z,17.89
2023-05-17T23:27:10.313Z,17.84
2023-05-17T23:29:42.181Z,17.64
2023-05-17T23:32:09.679Z,17.45
2023-05-17T23:34:37.143Z,17.48
2023-05-17T23:37:04.659Z,17.49
2023-05-17T23:39:32.132Z,17.34
2023-05-17T23:41:59.556Z,17.26
2023-05-17T23:44:27.038Z,17.45
2023-05-17T23:46:55.429Z,17.40
2023-05-17T23:49:25.860Z,17.38
2023-05-17T23:51:53.457Z,17.25
2023-05-17T23:54:22.378Z,17.13
2023-05-17T23:56:49.830Z,17.07
2023-05-17T23:59:17.208Z,16.95
